Tunacan — TUNACAN — position and weather

sailwx.info

Track history (hours):
 
Tides and Currents Weather Stations Pressure Air Temp Water Temp Dewpoint Dewpoint Depression Visibility Wind Speed Wind Dir Waves Ship Positions

Tunacan

Last reported at 2017-Dec-14 00:34 UTC. Time now 2017-Dec-15 14:25 UTC.
Position N 38°20' W 123°03'.

Length 13 m.

Type: Pleasure craft. MMSI: 338159978.

Date/timePositionNaut miles runAvg speedWind from/ knotsBaromVisibWave heightAir tempDewpointWater temp
2017-Dec-14 00:34N 38°20' W 123°03'0 0.0
2017-Dec-14 00:28N 38°20' W 123°03'0 0.4
2017-Dec-13 23:59N 38°20' W 123°04'3 6.3
2017-Dec-13 23:31N 38°21' W 123°07'5 9.8
2017-Dec-13 23:01N 38°25' W 123°11'1 1.6
2017-Dec-13 22:30N 38°24' W 123°10'1 1.2
2017-Dec-13 22:01N 38°24' W 123°10'611.9
2017-Dec-13 21:31N 38°18' W 123°13'1 2.2
2017-Dec-13 21:00N 38°19' W 123°14'2 4.9
2017-Dec-13 20:30N 38°21' W 123°16'712.6
2017-Dec-13 19:59N 38°23' W 123°24'1 3.0
2017-Dec-13 19:31N 38°21' W 123°23'1 1.3
2017-Dec-13 19:00N 38°21' W 123°23'815.6
2017-Dec-13 18:31N 38°23' W 123°14'3 6.1
2017-Dec-13 18:00N 38°24' W 123°10'1 1.0
2017-Dec-13 17:28N 38°23' W 123°09'0 0.9
2017-Dec-13 16:58N 38°23' W 123°09'0 1.0
2017-Dec-13 16:30N 38°23' W 123°09'0 0.6
2017-Dec-13 16:01N 38°23' W 123°08'510.8
2017-Dec-13 15:30N 38°19' W 123°03'1 0.1
2017-Dec-13 02:06N 38°20' W 123°03'0 0.9
2017-Dec-13 01:52N 38°20' W 123°04'412.1
2017-Dec-13 01:30N 38°18' W 123°09'4 8.5
2017-Dec-13 01:00N 38°19' W 123°14'1 2.4
2017-Dec-13 00:28N 38°20' W 123°14'1 1.2
2017-Dec-13 00:00N 38°21' W 123°14'0 1.0
2017-Dec-12 23:30N 38°21' W 123°15'1 1.4
2017-Dec-12 23:00N 38°22' W 123°15'1 2.2
2017-Dec-12 22:30N 38°22' W 123°16'1 2.1
2017-Dec-12 22:00N 38°23' W 123°16'0 0.4
2017-Dec-12 21:30N 38°23' W 123°16'1 1.6
2017-Dec-12 21:00N 38°24' W 123°16'2 3.3
2017-Dec-12 20:30N 38°25' W 123°18'1 1.2
2017-Dec-12 20:00N 38°26' W 123°18'2 3.0
2017-Dec-12 19:26N 38°27' W 123°19'2 5.5
2017-Dec-12 19:00N 38°27' W 123°22'1 1.6
2017-Dec-12 18:28N 38°27' W 123°22'1 1.8
2017-Dec-12 17:59N 38°26' W 123°21'0 1.0
2017-Dec-12 17:29N 38°25' W 123°21'3 7.2
2017-Dec-12 17:00N 38°22' W 123°23'713.5
2017-Dec-12 16:30N 38°19' W 123°15'2 4.1
2017-Dec-12 15:56N 38°18' W 123°13'4 9.9
2017-Dec-12 15:30N 38°17' W 123°07'4 6.3
2017-Dec-12 14:53N 38°20' W 123°03'0 0.0
2017-Dec-11 01:56N 38°20' W 123°03'2 4.4
2017-Dec-11 01:28N 38°18' W 123°04'1122.9
2017-Dec-11 01:00N 38°23' W 123°16'1 1.1
2017-Dec-11 00:30N 38°24' W 123°16'2 4.8
2017-Dec-11 00:00N 38°26' W 123°18'1 1.5
2017-Dec-10 23:29N 38°26' W 123°19'2 4.9
2017-Dec-10 23:00N 38°25' W 123°22'1 1.8
2017-Dec-10 22:29N 38°26' W 123°21'1 1.7
2017-Dec-10 21:59N 38°27' W 123°22'1 2.1
2017-Dec-10 21:29N 38°27' W 123°23'5 9.4
2017-Dec-10 21:00N 38°25' W 123°18'3 6.2
2017-Dec-10 20:30N 38°22' W 123°15'510.1
2017-Dec-10 20:00N 38°18' W 123°13'0 0.4
2017-Dec-10 19:30N 38°18' W 123°13'1 1.0
2017-Dec-10 18:59N 38°17' W 123°12'0 0.3
2017-Dec-10 18:30N 38°17' W 123°12'612.9
2017-Dec-10 18:00N 38°18' W 123°04'2 0.7
2017-Dec-10 14:53N 38°20' W 123°03'0 0.8
2017-Dec-10 14:30N 38°20' W 123°03'0 0.0
2017-Dec-09 22:40N 38°20' W 123°03'0 0.9
2017-Dec-09 22:28N 38°20' W 123°04'4 8.7
2017-Dec-09 22:00N 38°19' W 123°09'1321.5
2017-Dec-09 21:24N 38°27' W 123°22'410.2
2017-Dec-09 20:59N 38°26' W 123°17'0 0.9
2017-Dec-09 20:30N 38°27' W 123°17'2 4.5
2017-Dec-09 19:58N 38°26' W 123°20'1 2.9
2017-Dec-09 19:30N 38°25' W 123°21'2 3.9
2017-Dec-09 18:59N 38°27' W 123°19'713.3
2017-Dec-09 18:30N 38°21' W 123°16'5 9.7
2017-Dec-09 18:00N 38°17' W 123°12'0 0.8
2017-Dec-09 17:30N 38°17' W 123°12'0 0.7
2017-Dec-09 17:00N 38°16' W 123°12'0 0.7
2017-Dec-09 16:30N 38°16' W 123°11'0 0.8
2017-Dec-09 16:00N 38°16' W 123°11'0 0.3
2017-Dec-09 15:30N 38°16' W 123°11'710.3
2017-Dec-09 14:49N 38°20' W 123°03'4 0.2
2017-Dec-08 15:02N 38°17' W 123°07'126.8
2017-Dec-08 15:00N 38°17' W 123°06'3 6.2
2017-Dec-08 14:30N 38°20' W 123°03'0 0.0
2017-Dec-07 00:56N 38°20' W 123°03'0 1.0
2017-Dec-07 00:30N 38°19' W 123°03'917.3
2017-Dec-07 00:00N 38°20' W 123°14'2 4.5
2017-Dec-06 23:30N 38°22' W 123°15'3 6.6
2017-Dec-06 23:00N 38°24' W 123°19'2 1.0
2017-Dec-06 20:36N 38°26' W 123°17'  
Track history (hours):
 
Tides and Currents Weather Stations Pressure Air Temp Water Temp Dewpoint Dewpoint Depression Visibility Wind Speed Wind Dir Waves Ship Positions

Tunacan

Last reported at 2017-Dec-14 00:34 UTC. Time now 2017-Dec-15 14:25 UTC.
Position N 38°20' W 123°03'.

Length 13 m.

Type: Pleasure craft. MMSI: 338159978.

Date/timePositionNaut miles runAvg speedWind from/ knotsBaromVisibWave heightAir tempDewpointWater temp
2017-Dec-14 00:34N 38°20' W 123°03'0 0.0
2017-Dec-14 00:28N 38°20' W 123°03'0 0.4
2017-Dec-13 23:59N 38°20' W 123°04'3 6.3
2017-Dec-13 23:31N 38°21' W 123°07'5 9.8
2017-Dec-13 23:01N 38°25' W 123°11'1 1.6
2017-Dec-13 22:30N 38°24' W 123°10'1 1.2
2017-Dec-13 22:01N 38°24' W 123°10'611.9
2017-Dec-13 21:31N 38°18' W 123°13'1 2.2
2017-Dec-13 21:00N 38°19' W 123°14'2 4.9
2017-Dec-13 20:30N 38°21' W 123°16'712.6
2017-Dec-13 19:59N 38°23' W 123°24'1 3.0
2017-Dec-13 19:31N 38°21' W 123°23'1 1.3
2017-Dec-13 19:00N 38°21' W 123°23'815.6
2017-Dec-13 18:31N 38°23' W 123°14'3 6.1
2017-Dec-13 18:00N 38°24' W 123°10'1 1.0
2017-Dec-13 17:28N 38°23' W 123°09'0 0.9
2017-Dec-13 16:58N 38°23' W 123°09'0 1.0
2017-Dec-13 16:30N 38°23' W 123°09'0 0.6
2017-Dec-13 16:01N 38°23' W 123°08'510.8
2017-Dec-13 15:30N 38°19' W 123°03'1 0.1
2017-Dec-13 02:06N 38°20' W 123°03'0 0.9
2017-Dec-13 01:52N 38°20' W 123°04'412.1
2017-Dec-13 01:30N 38°18' W 123°09'4 8.5
2017-Dec-13 01:00N 38°19' W 123°14'1 2.4
2017-Dec-13 00:28N 38°20' W 123°14'1 1.2
2017-Dec-13 00:00N 38°21' W 123°14'0 1.0
2017-Dec-12 23:30N 38°21' W 123°15'1 1.4
2017-Dec-12 23:00N 38°22' W 123°15'1 2.2
2017-Dec-12 22:30N 38°22' W 123°16'1 2.1
2017-Dec-12 22:00N 38°23' W 123°16'0 0.4
2017-Dec-12 21:30N 38°23' W 123°16'1 1.6
2017-Dec-12 21:00N 38°24' W 123°16'2 3.3
2017-Dec-12 20:30N 38°25' W 123°18'1 1.2
2017-Dec-12 20:00N 38°26' W 123°18'2 3.0
2017-Dec-12 19:26N 38°27' W 123°19'2 5.5
2017-Dec-12 19:00N 38°27' W 123°22'1 1.6
2017-Dec-12 18:28N 38°27' W 123°22'1 1.8
2017-Dec-12 17:59N 38°26' W 123°21'0 1.0
2017-Dec-12 17:29N 38°25' W 123°21'3 7.2
2017-Dec-12 17:00N 38°22' W 123°23'713.5
2017-Dec-12 16:30N 38°19' W 123°15'2 4.1
2017-Dec-12 15:56N 38°18' W 123°13'4 9.9
2017-Dec-12 15:30N 38°17' W 123°07'4 6.3
2017-Dec-12 14:53N 38°20' W 123°03'0 0.0
2017-Dec-11 01:56N 38°20' W 123°03'2 4.4
2017-Dec-11 01:28N 38°18' W 123°04'1122.9
2017-Dec-11 01:00N 38°23' W 123°16'1 1.1
2017-Dec-11 00:30N 38°24' W 123°16'2 4.8
2017-Dec-11 00:00N 38°26' W 123°18'1 1.5
2017-Dec-10 23:29N 38°26' W 123°19'2 4.9
2017-Dec-10 23:00N 38°25' W 123°22'1 1.8
2017-Dec-10 22:29N 38°26' W 123°21'1 1.7
2017-Dec-10 21:59N 38°27' W 123°22'1 2.1
2017-Dec-10 21:29N 38°27' W 123°23'5 9.4
2017-Dec-10 21:00N 38°25' W 123°18'3 6.2
2017-Dec-10 20:30N 38°22' W 123°15'510.1
2017-Dec-10 20:00N 38°18' W 123°13'0 0.4
2017-Dec-10 19:30N 38°18' W 123°13'1 1.0
2017-Dec-10 18:59N 38°17' W 123°12'0 0.3
2017-Dec-10 18:30N 38°17' W 123°12'612.9
2017-Dec-10 18:00N 38°18' W 123°04'2 0.7
2017-Dec-10 14:53N 38°20' W 123°03'0 0.8
2017-Dec-10 14:30N 38°20' W 123°03'0 0.0
2017-Dec-09 22:40N 38°20' W 123°03'0 0.9
2017-Dec-09 22:28N 38°20' W 123°04'4 8.7
2017-Dec-09 22:00N 38°19' W 123°09'1321.5
2017-Dec-09 21:24N 38°27' W 123°22'410.2
2017-Dec-09 20:59N 38°26' W 123°17'0 0.9
2017-Dec-09 20:30N 38°27' W 123°17'2 4.5
2017-Dec-09 19:58N 38°26' W 123°20'1 2.9
2017-Dec-09 19:30N 38°25' W 123°21'2 3.9
2017-Dec-09 18:59N 38°27' W 123°19'713.3
2017-Dec-09 18:30N 38°21' W 123°16'5 9.7
2017-Dec-09 18:00N 38°17' W 123°12'0 0.8
2017-Dec-09 17:30N 38°17' W 123°12'0 0.7
2017-Dec-09 17:00N 38°16' W 123°12'0 0.7
2017-Dec-09 16:30N 38°16' W 123°11'0 0.8
2017-Dec-09 16:00N 38°16' W 123°11'0 0.3
2017-Dec-09 15:30N 38°16' W 123°11'710.3
2017-Dec-09 14:49N 38°20' W 123°03'4 0.2
2017-Dec-08 15:02N 38°17' W 123°07'126.8
2017-Dec-08 15:00N 38°17' W 123°06'3 6.2
2017-Dec-08 14:30N 38°20' W 123°03'0 0.0
2017-Dec-07 00:56N 38°20' W 123°03'0 1.0
2017-Dec-07 00:30N 38°19' W 123°03'917.3
2017-Dec-07 00:00N 38°20' W 123°14'2 4.5
2017-Dec-06 23:30N 38°22' W 123°15'3 6.6
2017-Dec-06 23:00N 38°24' W 123°19'2 1.0
2017-Dec-06 20:36N 38°26' W 123°17'  

Dump ship's entire track history